Time;durP1;ratioP1;P1;durP2;ratioP2;P2;SDS_P1;SDS_P2;PMS_P1;PMS_P2;Temp;Humidity;BMP_temperature;BMP_pressure;BME280_temperature;BME280_humidity;BME280_pressure;Samples;Min_cycle;Max_cycle;Signal;HPM_P1;HPM_P2
2022/07/25 00:01:53;;;;;;;17.40;15.60;;;9.80;99.90;;;;;;5097352;28;20842;-82
2022/07/25 00:04:20;;;;;;;15.90;13.82;;;10.00;99.90;;;;;;5094475;28;20437;-82
2022/07/25 00:06:47;;;;;;;14.70;13.13;;;10.10;99.90;;;;;;5096943;28;20388;-82
2022/07/25 00:09:14;;;;;;;16.00;14.27;;;10.10;99.90;;;;;;5095631;28;20493;-82
2022/07/25 00:11:41;;;;;;;15.82;14.20;;;10.20;99.90;;;;;;5095332;28;20840;-81
2022/07/25 00:14:09;;;;;;;19.10;17.20;;;10.30;99.90;;;;;;5095059;28;20821;-82
2022/07/25 00:16:36;;;;;;;13.23;11.88;;;10.50;99.90;;;;;;5095208;28;20736;-81
2022/07/25 00:19:03;;;;;;;15.00;12.77;;;10.90;99.90;;;;;;5095773;28;20361;-82
2022/07/25 00:21:30;;;;;;;19.95;17.35;;;10.90;99.90;;;;;;5095241;28;20414;-82
2022/07/25 00:23:57;;;;;;;16.02;13.07;;;11.00;99.90;;;;;;5095280;28;20396;-82
2022/07/25 00:26:24;;;;;;;14.23;12.50;;;11.10;99.90;;;;;;5098593;28;20376;-81
2022/07/25 00:28:51;;;;;;;13.80;12.23;;;11.10;99.90;;;;;;5095645;28;20396;-82
2022/07/25 00:31:18;;;;;;;12.57;11.07;;;11.10;99.90;;;;;;5100454;28;20461;-84
2022/07/25 00:33:45;;;;;;;8.30;7.38;;;11.20;99.90;;;;;;5098323;28;20438;-82
2022/07/25 00:36:12;;;;;;;9.50;8.20;;;11.20;99.90;;;;;;5100869;28;20368;-82
2022/07/25 00:38:40;;;;;;;11.00;10.00;;;11.30;99.90;;;;;;5102022;28;20471;-82
2022/07/25 00:41:07;;;;;;;11.17;10.17;;;11.40;99.90;;;;;;5097202;28;20380;-83
2022/07/25 00:43:34;;;;;;;11.65;10.55;;;11.50;99.90;;;;;;5095407;28;20368;-84
2022/07/25 00:46:01;;;;;;;14.15;12.75;;;11.70;99.90;;;;;;5094754;28;20381;-82
2022/07/25 00:48:29;;;;;;;12.98;11.60;;;12.00;99.90;;;;;;5094567;28;20431;-82
2022/07/25 00:50:57;;;;;;;10.02;9.00;;;12.30;99.90;;;;;;5095030;28;20372;-83
2022/07/25 00:53:25;;;;;;;9.20;8.30;;;12.40;99.90;;;;;;5094104;28;20422;-84
2022/07/25 00:55:52;;;;;;;8.10;7.23;;;12.50;99.90;;;;;;5094131;28;20373;-83
2022/07/25 00:58:20;;;;;;;8.48;7.20;;;12.40;99.90;;;;;;5094328;28;20368;-83
2022/07/25 01:00:47;;;;;;;8.32;7.38;;;12.50;99.90;;;;;;5094179;28;20376;-84
2022/07/25 01:03:16;;;;;;;7.72;6.63;;;12.60;99.90;;;;;;5094324;28;20380;-83
2022/07/25 01:05:43;;;;;;;6.37;5.77;;;12.70;99.90;;;;;;5094221;28;20375;-82
2022/07/25 01:08:10;;;;;;;5.63;5.10;;;12.80;99.90;;;;;;5094114;28;20483;-84
2022/07/25 01:10:38;;;;;;;5.38;4.63;;;12.90;99.90;;;;;;5094250;28;20403;-84
2022/07/25 01:13:05;;;;;;;6.90;4.03;;;13.10;99.90;;;;;;5093961;28;20388;-83
2022/07/25 01:15:33;;;;;;;5.43;3.90;;;13.20;99.90;;;;;;5094161;28;20874;-83
2022/07/25 01:18:00;;;;;;;6.40;4.40;;;13.30;99.90;;;;;;5094027;28;20872;-83
2022/07/25 01:20:29;;;;;;;5.00;4.50;;;13.30;99.90;;;;;;5093903;28;20380;-83
2022/07/25 01:22:58;;;;;;;4.60;4.20;;;13.40;99.90;;;;;;5094037;28;20376;-83
2022/07/25 01:25:26;;;;;;;5.22;3.97;;;13.50;99.90;;;;;;5092739;28;20360;-84
2022/07/25 01:27:54;;;;;;;6.30;4.20;;;13.70;99.90;;;;;;5093653;28;20435;-89
2022/07/25 01:30:22;;;;;;;4.68;3.85;;;14.00;99.90;;;;;;5093876;28;20379;-83
2022/07/25 01:32:50;;;;;;;4.63;4.13;;;14.20;99.90;;;;;;5093499;28;20740;-83
2022/07/25 01:35:17;;;;;;;4.45;3.78;;;14.10;99.90;;;;;;5093439;28;20842;-83
2022/07/25 01:37:44;;;;;;;6.20;4.03;;;14.00;99.90;;;;;;5093401;28;20378;-83
2022/07/25 01:40:11;;;;;;;5.57;4.45;;;14.30;99.90;;;;;;5093890;28;20376;-84
2022/07/25 01:42:38;;;;;;;5.67;4.90;;;14.50;99.90;;;;;;5093402;28;20418;-83
2022/07/25 01:45:06;;;;;;;5.03;4.40;;;14.70;99.90;;;;;;5093491;28;20400;-84
2022/07/25 01:47:33;;;;;;;6.03;5.30;;;14.80;99.90;;;;;;5093820;28;20396;-83
2022/07/25 01:50:00;;;;;;;7.82;5.85;;;14.80;99.90;;;;;;5092337;28;20420;-83
2022/07/25 01:52:27;;;;;;;8.98;5.60;;;15.00;99.90;;;;;;5093755;28;20392;-83
2022/07/25 01:54:54;;;;;;;6.72;5.68;;;15.10;99.90;;;;;;5093285;28;20459;-83
2022/07/25 01:57:24;;;;;;;12.90;7.32;;;15.20;99.90;;;;;;5093075;28;20774;-83
2022/07/25 01:59:51;;;;;;;10.17;7.27;;;15.30;99.90;;;;;;5092993;28;20364;-83
2022/07/25 02:02:18;;;;;;;10.50;7.43;;;15.40;99.90;;;;;;5093302;28;20455;-84
2022/07/25 02:04:45;;;;;;;9.60;7.60;;;15.40;99.90;;;;;;5093079;28;20377;-83
2022/07/25 02:07:12;;;;;;;7.43;6.38;;;15.50;99.90;;;;;;5092963;28;20810;-83
2022/07/25 02:09:40;;;;;;;8.40;6.00;;;15.60;99.90;;;;;;5093007;28;20392;-83
2022/07/25 02:12:07;;;;;;;6.63;5.40;;;15.70;99.90;;;;;;5092806;28;20376;-84
2022/07/25 02:14:34;;;;;;;7.95;4.93;;;15.70;99.90;;;;;;5092667;28;20392;-83
2022/07/25 02:17:01;;;;;;;5.25;4.32;;;15.80;99.90;;;;;;5092910;28;20718;-85
2022/07/25 02:19:28;;;;;;;5.07;4.43;;;15.80;99.90;;;;;;5091525;28;20381;-84
2022/07/25 02:21:55;;;;;;;6.15;4.93;;;15.90;99.90;;;;;;5092811;28;20415;-84
2022/07/25 02:24:23;;;;;;;6.00;4.37;;;16.00;99.90;;;;;;5092915;28;20368;-85
2022/07/25 02:26:50;;;;;;;5.30;3.80;;;16.00;99.90;;;;;;5092648;28;20843;-85
2022/07/25 02:29:17;;;;;;;4.75;3.47;;;16.20;99.90;;;;;;5092916;28;20421;-83
2022/07/25 02:31:44;;;;;;;3.97;3.08;;;16.20;99.90;;;;;;5092891;28;20364;-83
2022/07/25 02:37:33;;;;;;;4.75;3.60;;;16.20;99.90;;;;;;5092556;28;20384;-83
2022/07/25 02:47:24;;;;;;;2.80;1.67;;;16.50;99.90;;;;;;5092618;28;20423;-82
2022/07/25 02:49:51;;;;;;;3.75;2.00;;;16.70;99.90;;;;;;5092780;28;20392;-84
2022/07/25 02:52:18;;;;;;;2.80;1.75;;;16.80;99.90;;;;;;5093261;28;20468;-86
2022/07/25 02:54:45;;;;;;;2.78;1.50;;;16.80;99.90;;;;;;5098171;28;20421;-84
2022/07/25 02:57:12;;;;;;;2.73;1.33;;;16.90;99.90;;;;;;5097923;28;20371;-83
2022/07/25 02:59:39;;;;;;;2.57;1.20;;;;;;;;;;5094756;28;20369;-84
2022/07/25 03:02:06;;;;;;;2.00;1.60;;;;;;;;;;5093853;28;20848;-83
2022/07/25 03:04:33;;;;;;;2.73;1.00;;;17.00;99.90;;;;;;5093501;28;20455;-83
2022/07/25 03:07:00;;;;;;;3.42;2.47;;;17.20;99.90;;;;;;5092939;28;20929;-84
2022/07/25 03:09:27;;;;;;;2.47;1.30;;;17.30;99.90;;;;;;5092805;28;20717;-82
2022/07/25 03:11:54;;;;;;;2.33;1.02;;;;;;;;;;5092856;28;20368;-83
2022/07/25 03:14:21;;;;;;;1.83;1.10;;;;;;;;;;5092577;28;20389;-83
2022/07/25 03:16:48;;;;;;;1.75;0.90;;;;;;;;;;5092216;28;20365;-85
2022/07/25 03:19:16;;;;;;;4.93;1.40;;;;;;;;;;5092722;28;20414;-84
2022/07/25 03:21:44;;;;;;;3.80;1.30;;;;;;;;;;5092335;28;20371;-83
2022/07/25 03:24:11;;;;;;;3.38;1.00;;;;;;;;;;5092236;28;20394;-83
2022/07/25 03:26:38;;;;;;;2.38;1.02;;;;;;;;;;5092324;28;20361;-83
2022/07/25 03:29:05;;;;;;;3.45;1.90;;;;;;;;;;5092375;28;20483;-83
2022/07/25 03:31:32;;;;;;;4.15;1.98;;;;;;;;;;5092482;28;20364;-83
2022/07/25 03:33:59;;;;;;;5.95;3.83;;;;;;;;;;5092504;28;20367;-84
2022/07/25 03:36:26;;;;;;;1.88;1.60;;;;;;;;;;5091903;28;20376;-85
2022/07/25 03:38:55;;;;;;;1.55;1.20;;;;;;;;;;5091997;28;20365;-83
2022/07/25 03:41:22;;;;;;;1.80;1.00;;;;;;;;;;5091827;28;20728;-84
2022/07/25 03:43:49;;;;;;;1.20;0.80;;;;;;;;;;5091993;28;20872;-84
2022/07/25 03:46:16;;;;;;;1.73;1.02;;;;;;;;;;5091977;28;20400;-84
2022/07/25 03:48:43;;;;;;;2.22;0.90;;;;;;;;;;5094824;28;20483;-84
2022/07/25 03:51:10;;;;;;;9.00;7.95;;;;;;;;;;5095877;28;20894;-84
2022/07/25 03:54:00;;;;;;;1.85;1.17;;;;;;;;;;5095829;28;20729;-83
2022/07/25 03:56:24;;;;;;;1.58;0.73;;;;;;;;;;5095361;28;20369;-84
2022/07/25 03:58:51;;;;;;;0.63;0.50;;;;;;;;;;5095681;28;20851;-83
2022/07/25 04:01:18;;;;;;;1.25;0.50;;;;;;;;;;5095369;28;20368;-85
2022/07/25 04:03:45;;;;;;;1.70;0.93;;;;;;;;;;5095599;28;20429;-84
2022/07/25 04:06:12;;;;;;;12.63;8.13;;;;;;;;;;5095184;28;20847;-84
2022/07/25 04:08:39;;;;;;;2.03;0.80;;;;;;;;;;5095227;28;20404;-83
2022/07/25 04:11:06;;;;;;;1.00;0.50;;;;;;;;;;5095262;28;20456;-84
2022/07/25 04:13:33;;;;;;;1.52;0.40;;;;;;;;;;5095525;28;20368;-84
2022/07/25 04:16:00;;;;;;;1.00;0.90;;;;;;;;;;5095089;28;20372;-83
2022/07/25 04:18:27;;;;;;;0.70;0.50;;;;;;;;;;5095149;28;20400;-83
2022/07/25 04:20:54;;;;;;;1.13;0.30;;;;;;;;;;5095242;28;20451;-83
2022/07/25 04:23:21;;;;;;;1.70;0.30;;;;;;;;;;5095314;28;20388;-84
2022/07/25 04:25:48;;;;;;;1.33;0.50;;;;;;;;;;5095252;28;20426;-84
2022/07/25 04:28:15;;;;;;;0.60;0.40;;;;;;;;;;5094869;28;20400;-83
2022/07/25 04:30:44;;;;;;;1.00;0.50;;;;;;;;;;5095152;28;20939;-84
2022/07/25 04:33:11;;;;;;;7.68;6.82;;;;;;;;;;5094659;28;20455;-84
2022/07/25 04:35:38;;;;;;;2.75;1.88;;;;;;;;;;5095134;28;20361;-83
2022/07/25 04:38:05;;;;;;;1.65;1.23;;;;;;;;;;5094986;28;20368;-84
2022/07/25 04:40:39;;;;;;;9.45;8.48;;;;;;;;;;5093789;28;21231;-84
2022/07/25 04:43:07;;;;;;;1.67;1.13;;;;;;;;;;5094622;28;20410;-83
2022/07/25 04:45:34;;;;;;;0.63;0.50;;;;;;;;;;5094786;28;20430;-84
2022/07/25 04:48:01;;;;;;;1.08;0.40;;;;;;;;;;5094560;28;20392;-83
2022/07/25 04:50:29;;;;;;;1.48;0.90;;;;;;;;;;5094658;28;20375;-83
2022/07/25 04:52:56;;;;;;;1.80;0.90;;;;;;;;;;5094957;28;20372;-84
2022/07/25 04:55:23;;;;;;;3.30;3.00;;;;;;;;;;5094906;28;20836;-84
2022/07/25 04:57:50;;;;;;;1.52;1.00;;;;;;;;;;5094412;28;20372;-84
2022/07/25 05:00:17;;;;;;;1.55;0.50;;;;;;;;;;5094414;28;20429;-84
2022/07/25 05:02:44;;;;;;;5.80;5.20;;;;;;;;;;5094419;28;20705;-83
2022/07/25 05:05:11;;;;;;;6.63;5.78;;;;;;;;;;5094465;28;20368;-84
2022/07/25 05:07:38;;;;;;;3.03;1.77;;;;;;;;;;5094199;28;20399;-82
2022/07/25 05:10:05;;;;;;;1.83;0.98;;;;;;;;;;5094392;28;20372;-82
2022/07/25 05:12:32;;;;;;;2.33;0.70;;;;;;;;;;5094261;28;20386;-83
2022/07/25 05:14:59;;;;;;;1.20;0.45;;;;;;;;;;5093989;28;20387;-82
2022/07/25 05:17:26;;;;;;;4.32;3.92;;;;;;;;;;5093889;28;20368;-83
2022/07/25 05:19:57;;;;;;;3.25;1.52;;;;;;;;;;5093709;28;20376;-83
2022/07/25 05:22:24;;;;;;;1.10;0.60;;;;;;;;;;5093911;28;20365;-83
2022/07/25 05:24:51;;;;;;;4.82;2.78;;;;;;;;;;5093694;28;20371;-83
2022/07/25 05:27:18;;;;;;;2.00;0.88;;;;;;;;;;5093427;28;20419;-84
2022/07/25 05:29:45;;;;;;;1.45;0.90;;;;;;;;;;5093958;28;20879;-83
2022/07/25 05:32:12;;;;;;;1.10;0.88;;;;;;;;;;5093712;28;20369;-82
2022/07/25 05:34:39;;;;;;;1.40;0.57;;;;;;;;;;5093991;28;20368;-85
2022/07/25 05:37:06;;;;;;;0.50;0.40;;;;;;;;;;5093367;28;20435;-86
2022/07/25 05:39:33;;;;;;;0.80;0.40;;;;;;;;;;5093580;28;20447;-82
2022/07/25 05:42:00;;;;;;;0.88;0.30;;;;;;;;;;5092926;28;20895;-80
2022/07/25 05:44:27;;;;;;;0.73;0.47;;;;;;;;;;5093181;28;20377;-83
2022/07/25 05:46:54;;;;;;;1.00;0.60;;;;;;;;;;5093503;28;20364;-81
2022/07/25 05:49:21;;;;;;;3.38;0.50;;;;;;;;;;5093806;28;20883;-86
2022/07/25 05:51:48;;;;;;;1.45;0.60;;;;;;;;;;5093687;28;20813;-86
2022/07/25 05:54:15;;;;;;;1.88;1.20;;;;;;;;;;5093658;28;20376;-81
2022/07/25 05:56:42;;;;;;;1.70;0.93;;;;;;;;;;5093361;28;20364;-81
2022/07/25 05:59:09;;;;;;;1.05;0.52;;;;;;;;;;5093393;28;20376;-81
2022/07/25 06:01:36;;;;;;;1.05;0.40;;;;;;;;;;5093331;28;20852;-83
2022/07/25 06:04:04;;;;;;;0.50;0.40;;;;;;;;;;5093261;28;20364;-83
2022/07/25 06:06:32;;;;;;;0.82;0.52;;;;;;;;;;5093157;28;20400;-83
2022/07/25 06:08:59;;;;;;;1.10;0.50;;;;;;;;;;5093508;28;20791;-82
2022/07/25 06:11:27;;;;;;;2.30;0.60;;;;;;;;;;5093268;28;20369;-82
2022/07/25 06:13:54;;;;;;;1.13;0.57;;;;;;;;;;5097704;28;20364;-83
2022/07/25 06:16:21;;;;;;;1.27;0.60;;;;;;;;;;5098528;28;20360;-82
2022/07/25 06:18:48;;;;;;;1.70;1.00;;;17.50;99.90;;;;;;5094949;28;20465;-84
2022/07/25 06:21:15;;;;;;;5.38;3.22;;;17.30;99.90;;;;;;5094612;28;20371;-83
2022/07/25 06:23:42;;;;;;;3.90;3.20;;;17.00;99.90;;;;;;5095113;28;20368;-84
2022/07/25 06:26:10;;;;;;;1.77;1.15;;;16.70;99.90;;;;;;5093846;28;20368;-86
2022/07/25 06:28:38;;;;;;;2.10;1.30;;;16.50;99.90;;;;;;5093789;28;20392;-84
2022/07/25 06:31:05;;;;;;;2.45;1.10;;;;;;;;;;5093233;28;20368;-83
2022/07/25 06:33:32;;;;;;;2.17;0.87;;;;;;;;;;5093056;28;20388;-84
2022/07/25 06:35:59;;;;;;;1.23;0.70;;;;;;;;;;5092890;28;20361;-83
2022/07/25 06:38:26;;;;;;;1.70;0.87;;;;;;;;;;5093110;28;20425;-84
2022/07/25 06:40:53;;;;;;;1.73;0.90;;;;;;;;;;5092726;28;20463;-85
2022/07/25 06:43:20;;;;;;;2.23;0.90;;;;;;;;;;5092724;28;20372;-86
2022/07/25 06:45:47;;;;;;;2.37;0.90;;;;;;;;;;5092833;28;20373;-83
2022/07/25 06:48:15;;;;;;;3.03;1.15;;;;;;;;;;5092386;28;20404;-81
2022/07/25 06:50:42;;;;;;;3.13;1.20;;;;;;;;;;5092654;28;20803;-84
2022/07/25 06:53:09;;;;;;;3.97;1.50;;;;;;;;;;5092654;28;20368;-82
2022/07/25 06:55:36;;;;;;;3.08;1.48;;;;;;;;;;5092986;28;20372;-83
2022/07/25 06:58:04;;;;;;;3.17;1.67;;;;;;;;;;5093287;28;20365;-82
2022/07/25 07:00:31;;;;;;;2.78;1.50;;;;;;;;;;5092333;28;20425;-82
2022/07/25 07:03:00;;;;;;;3.50;1.60;;;;;;;;;;5092454;28;20396;-84
2022/07/25 07:05:28;;;;;;;6.85;3.65;;;;;;;;;;5092182;28;20375;-83
2022/07/25 07:07:56;;;;;;;2.95;1.50;;;;;;;;;;5092370;28;20399;-86
2022/07/25 07:10:23;;;;;;;2.75;1.20;;;;;;;;;;5092776;28;20438;-83
2022/07/25 07:12:50;;;;;;;4.28;1.40;;;;;;;;;;5092468;28;20372;-83
2022/07/25 07:15:17;;;;;;;3.20;1.45;;;;;;;;;;5092232;28;20391;-82
2022/07/25 07:17:44;;;;;;;2.97;1.65;;;;;;;;;;5092214;28;20447;-86
2022/07/25 07:20:12;;;;;;;2.75;1.42;;;;;;;;;;5092711;28;20361;-81
2022/07/25 07:22:48;;;;;;;3.93;2.00;;;;;;;;;;5093213;28;20878;-83
2022/07/25 07:25:16;;;;;;;7.22;3.85;;;;;;;;;;5096590;28;20368;-84
2022/07/25 07:27:44;;;;;;;6.53;4.25;;;;;;;;;;5096231;28;20388;-83
2022/07/25 07:30:13;;;;;;;4.80;3.50;;;;;;;;;;5096316;28;20834;-86
2022/07/25 07:32:41;;;;;;;5.63;3.20;;;;;;;;;;5100622;28;20375;-85
2022/07/25 07:35:09;;;;;;;7.63;3.30;;;;;;;;;;5109480;28;20376;-82
2022/07/25 07:37:37;;;;;;;4.43;2.88;;;;;;;;;;5101823;28;20504;-85
2022/07/25 07:40:04;;;;;;;5.78;3.63;;;;;;;;;;5102836;28;20364;-82
2022/07/25 07:42:38;;;;;;;33.10;29.40;;;;;;;;;;5106613;28;20421;-84
2022/07/25 07:45:10;;;;;;;125.30;112.32;;;;;;;;;;5116968;28;20376;-85
2022/07/25 07:47:37;;;;;;;122.25;109.28;;;;;;;;;;5116080;28;20393;-86
2022/07/25 07:50:04;;;;;;;251.20;224.10;;;;;;;;;;5117109;28;20472;-84
2022/07/25 07:52:31;;;;;;;77.47;68.25;;;;;;;;;;5116344;28;20372;-87
2022/07/25 07:57:43;;;;;;;378.45;339.63;;;13.40;99.90;;;;;;5097926;28;20356;-82
2022/07/25 08:00:12;;;;;;;281.45;251.77;;;13.20;99.90;;;;;;5097426;28;20422;-88
2022/07/25 08:02:44;;;;;;;286.45;256.52;;;13.20;99.90;;;;;;5096764;28;20414;-84
2022/07/25 08:05:12;;;;;;;154.38;133.45;;;13.10;99.90;;;;;;5097638;28;20380;-87
2022/07/25 08:07:39;;;;;;;100.07;89.20;;;13.00;99.90;;;;;;5096970;28;20408;-85
2022/07/25 08:10:06;;;;;;;37.28;28.52;;;13.00;99.90;;;;;;5096169;28;20376;-85
2022/07/25 08:12:38;;;;;;;29.10;24.17;;;12.90;99.90;;;;;;5095663;28;20415;-85
2022/07/25 08:15:06;;;;;;;26.05;20.80;;;12.90;99.90;;;;;;5095601;28;20365;-88
2022/07/25 08:17:33;;;;;;;19.90;16.45;;;12.90;99.90;;;;;;5095634;28;20375;-91
2022/07/25 08:20:06;;;;;;;16.83;13.25;;;12.80;99.90;;;;;;5095385;28;20377;-88
2022/07/25 08:22:40;;;;;;;16.48;13.80;;;12.80;99.90;;;;;;5095530;28;20377;-89
2022/07/25 08:25:15;;;;;;;17.90;14.00;;;12.80;99.90;;;;;;5095935;28;20395;-84
2022/07/25 08:27:43;;;;;;;21.63;18.83;;;12.80;99.90;;;;;;5096767;28;20387;-86
2022/07/25 08:30:11;;;;;;;25.40;22.43;;;12.70;99.90;;;;;;5095291;28;20412;-90
2022/07/25 08:32:56;;;;;;;24.17;19.05;;;12.80;99.90;;;;;;5095337;28;20422;-83
2022/07/25 08:35:25;;;;;;;20.75;16.75;;;12.70;99.90;;;;;;5093817;28;20743;-85
2022/07/25 08:37:54;;;;;;;17.37;13.10;;;12.70;99.90;;;;;;5094606;28;20364;-84
2022/07/25 08:40:24;;;;;;;15.30;11.07;;;12.70;99.90;;;;;;5094810;28;20731;-86
2022/07/25 08:42:53;;;;;;;15.98;10.55;;;12.70;99.90;;;;;;5094665;28;20399;-84
2022/07/25 08:45:22;;;;;;;18.75;14.38;;;12.70;99.90;;;;;;5094934;28;20379;-84
2022/07/25 08:47:51;;;;;;;19.90;14.20;;;12.80;99.90;;;;;;5094997;28;20400;-84
2022/07/25 08:50:30;;;;;;;21.48;14.13;;;12.80;99.90;;;;;;5094484;28;20373;-82
2022/07/25 08:52:57;;;;;;;18.95;14.13;;;12.80;99.90;;;;;;5094766;28;20371;-84
2022/07/25 08:55:25;;;;;;;15.90;11.55;;;12.80;99.90;;;;;;5094314;28;20454;-82
2022/07/25 08:57:54;;;;;;;26.98;20.00;;;12.80;99.90;;;;;;5094281;28;20376;-86
2022/07/25 09:00:30;;;;;;;24.08;19.35;;;12.70;99.90;;;;;;5095796;28;20455;-85
2022/07/25 09:03:05;;;;;;;19.75;14.57;;;12.70;99.90;;;;;;5094807;28;20912;-84
2022/07/25 09:05:32;;;;;;;20.58;12.38;;;12.70;99.90;;;;;;5094195;28;20451;-84
2022/07/25 09:08:15;;;;;;;15.17;10.43;;;12.70;99.90;;;;;;5094199;28;20422;-84
2022/07/25 09:10:47;;;;;;;12.77;8.45;;;12.70;99.90;;;;;;5093976;28;20364;-84
2022/07/25 09:13:15;;;;;;;14.17;9.37;;;12.70;99.90;;;;;;5095814;28;20376;-86
2022/07/25 09:15:47;;;;;;;14.53;8.90;;;12.60;99.90;;;;;;5096346;28;20368;-83
2022/07/25 09:18:17;;;;;;;14.07;8.53;;;12.60;99.90;;;;;;5095335;28;20444;-85
2022/07/25 09:20:49;;;;;;;13.25;8.77;;;12.60;99.90;;;;;;5096061;28;20852;-86
2022/07/25 09:23:31;;;;;;;14.25;8.80;;;12.60;99.90;;;;;;5095261;28;20444;-84
2022/07/25 09:26:17;;;;;;;12.05;7.10;;;12.60;99.90;;;;;;5093090;28;20391;-85
2022/07/25 09:28:47;;;;;;;12.57;5.90;;;12.50;99.90;;;;;;5094610;28;20773;-84
2022/07/25 09:31:15;;;;;;;11.17;5.73;;;12.50;99.90;;;;;;5096600;28;20848;-83
2022/07/25 09:33:58;;;;;;;12.30;7.00;;;12.40;99.90;;;;;;5094990;28;20396;-84
2022/07/25 09:36:28;;;;;;;15.93;9.13;;;12.40;99.90;;;;;;5096278;28;20364;-85
2022/07/25 09:39:01;;;;;;;16.15;11.80;;;12.30;99.90;;;;;;5095090;28;20368;-83
2022/07/25 09:41:36;;;;;;;28.58;21.67;;;12.30;99.90;;;;;;5092901;28;20484;-83
2022/07/25 09:44:17;;;;;;;24.25;17.50;;;12.30;99.90;;;;;;5094606;28;20863;-85
2022/07/25 09:46:48;;;;;;;20.47;15.13;;;12.20;99.90;;;;;;5093818;28;20434;-84
2022/07/25 09:49:18;;;;;;;23.95;18.38;;;12.10;99.90;;;;;;5093733;28;20401;-84
2022/07/25 09:51:46;;;;;;;22.70;17.15;;;12.20;99.90;;;;;;5094455;28;20912;-85
2022/07/25 09:54:15;;;;;;;20.83;16.42;;;12.00;99.90;;;;;;5094242;28;20388;-83
2022/07/25 09:56:42;;;;;;;21.03;16.07;;;11.90;99.90;;;;;;5094876;28;20713;-83
2022/07/25 09:59:09;;;;;;;22.92;17.95;;;11.90;99.90;;;;;;5097491;28;20379;-82
2022/07/25 10:02:19;;;;;;;19.13;15.77;;;11.80;99.90;;;;;;5097371;28;20436;-84
2022/07/25 10:05:09;;;;;;;24.80;15.80;;;11.80;99.90;;;;;;5013616;28;20383;-84
2022/07/25 10:07:38;;;;;;;18.45;13.48;;;11.70;99.90;;;;;;5011223;28;20407;-84
2022/07/25 10:10:06;;;;;;;21.03;12.30;;;11.60;99.90;;;;;;5013561;28;20413;-81
2022/07/25 10:12:36;;;;;;;16.95;10.55;;;11.60;99.90;;;;;;5013434;28;20375;-83
2022/07/25 10:15:13;;;;;;;17.25;10.65;;;11.50;99.90;;;;;;5014175;28;20811;-85
2022/07/25 10:17:48;;;;;;;13.60;9.00;;;11.50;99.90;;;;;;4995230;28;20388;-84
2022/07/25 10:20:15;;;;;;;16.50;9.90;;;11.50;99.90;;;;;;5012348;28;20387;-85
2022/07/25 10:22:46;;;;;;;14.68;9.63;;;11.40;99.90;;;;;;5013888;28;20415;-88
2022/07/25 10:25:15;;;;;;;18.27;10.18;;;11.40;99.90;;;;;;5008290;28;20391;-83
2022/07/25 10:27:47;;;;;;;14.95;9.90;;;11.40;99.90;;;;;;5010535;28;20511;-88
2022/07/25 10:30:25;;;;;;;15.32;9.60;;;11.30;99.90;;;;;;5011387;28;20521;-88
2022/07/25 10:33:05;;;;;;;17.08;9.55;;;11.30;99.90;;;;;;5012893;28;20395;-88
2022/07/25 10:35:32;;;;;;;18.40;10.63;;;11.30;99.90;;;;;;4997032;28;20386;-86
2022/07/25 10:38:05;;;;;;;18.83;11.43;;;11.30;99.90;;;;;;5014232;28;20387;-84
2022/07/25 10:40:45;;;;;;;21.33;10.30;;;11.20;99.90;;;;;;5020681;28;20380;-90
2022/07/25 10:43:20;;;;;;;19.38;9.15;;;11.20;99.90;;;;;;5095840;28;20400;-85
2022/07/25 10:45:59;;;;;;;13.18;9.18;;;11.10;99.90;;;;;;5094642;28;20455;-88
2022/07/25 10:48:27;;;;;;;16.25;9.13;;;11.10;99.90;;;;;;5095063;28;20426;-85
2022/07/25 10:51:03;;;;;;;20.30;9.55;;;11.10;99.90;;;;;;5095948;28;20864;-86
2022/07/25 10:53:37;;;;;;;16.98;9.07;;;11.10;99.90;;;;;;5094624;28;20392;-91
2022/07/25 10:56:06;;;;;;;18.88;9.27;;;11.10;99.90;;;;;;5095693;28;20372;-85
2022/07/25 10:58:46;;;;;;;15.60;8.85;;;11.10;99.90;;;;;;5098457;28;20372;-84
2022/07/25 11:01:14;;;;;;;21.48;9.07;;;11.00;99.90;;;;;;5097548;28;20852;-83
2022/07/25 11:03:45;;;;;;;14.43;8.07;;;11.00;99.90;;;;;;5097962;28;20404;-87
2022/07/25 11:06:16;;;;;;;15.82;7.97;;;10.90;99.90;;;;;;5100922;28;20380;-84
2022/07/25 11:08:44;;;;;;;17.47;8.00;;;10.90;99.90;;;;;;5096966;28;20863;-85
2022/07/25 11:11:12;;;;;;;17.88;8.32;;;10.60;99.90;;;;;;5097983;28;20372;-86
2022/07/25 11:13:41;;;;;;;15.68;8.48;;;10.90;99.90;;;;;;5097847;28;20791;-86
2022/07/25 11:16:09;;;;;;;20.27;9.20;;;10.90;99.90;;;;;;5099421;28;20852;-85
2022/07/25 11:18:40;;;;;;;22.13;9.23;;;10.90;99.90;;;;;;5099891;28;20380;-88
2022/07/25 11:21:08;;;;;;;21.83;11.65;;;10.80;99.90;;;;;;5099898;28;20368;-87
2022/07/25 11:23:35;;;;;;;29.38;20.33;;;10.80;99.90;;;;;;5096968;28;20371;-85
2022/07/25 11:26:11;;;;;;;37.22;31.95;;;10.70;99.90;;;;;;5096629;28;20368;-87
2022/07/25 11:28:46;;;;;;;42.97;38.05;;;10.60;99.90;;;;;;5096316;28;20419;-85
2022/07/25 11:31:15;;;;;;;33.45;26.50;;;10.50;99.90;;;;;;5096266;28;20375;-84
2022/07/25 11:33:46;;;;;;;34.70;30.17;;;10.40;99.90;;;;;;5095945;28;20371;-87
2022/07/25 11:36:13;;;;;;;35.80;28.20;;;10.40;99.90;;;;;;5096165;28;20368;-85
2022/07/25 11:38:41;;;;;;;27.50;19.98;;;10.40;99.90;;;;;;5096066;28;20937;-85
2022/07/25 11:41:08;;;;;;;23.60;15.88;;;10.40;99.90;;;;;;5095942;28;20373;-84
2022/07/25 11:43:36;;;;;;;28.40;20.55;;;10.40;99.90;;;;;;5096683;28;20376;-87
2022/07/25 11:46:05;;;;;;;25.80;17.63;;;10.30;99.90;;;;;;5096018;28;20817;-84
2022/07/25 11:48:38;;;;;;;21.73;15.33;;;10.30;99.90;;;;;;5095081;28;20410;-85
2022/07/25 11:51:10;;;;;;;20.48;13.43;;;8.40;99.90;;;;;;5095834;28;20361;-84
2022/07/25 11:53:48;;;;;;;21.60;15.02;;;10.30;99.90;;;;;;5094281;28;20779;-84
2022/07/25 11:56:20;;;;;;;21.30;15.82;;;10.30;99.90;;;;;;5095705;28;20368;-86
2022/07/25 11:59:05;;;;;;;20.53;14.27;;;10.30;99.90;;;;;;5094453;28;20384;-87
2022/07/25 12:01:37;;;;;;;19.27;12.93;;;10.40;99.90;;;;;;5095489;28;20380;-85
2022/07/25 12:04:19;;;;;;;17.73;12.07;;;10.40;99.90;;;;;;5095669;28;20377;-86
2022/07/25 12:06:49;;;;;;;18.25;11.73;;;10.40;99.90;;;;;;5095669;28;20365;-84
2022/07/25 12:09:21;;;;;;;19.17;11.40;;;10.40;99.90;;;;;;5093318;28;20404;-87
2022/07/25 12:11:49;;;;;;;17.38;10.68;;;10.40;99.90;;;;;;5095468;28;20727;-86
2022/07/25 12:14:16;;;;;;;16.33;10.02;;;10.40;99.90;;;;;;5095238;28;20463;-86
2022/07/25 12:16:43;;;;;;;20.73;10.38;;;10.40;99.90;;;;;;5094984;28;20375;-83
2022/07/25 12:19:19;;;;;;;15.82;9.63;;;10.40;99.90;;;;;;5095255;28;20372;-84
2022/07/25 12:21:46;;;;;;;16.33;8.88;;;10.40;99.90;;;;;;5095279;28;20375;-85
2022/07/25 12:24:14;;;;;;;16.73;9.23;;;10.40;99.90;;;;;;5095388;28;20369;-84
2022/07/25 12:26:41;;;;;;;15.50;8.30;;;10.40;99.90;;;;;;5094689;28;20514;-83
2022/07/25 12:29:08;;;;;;;15.95;8.38;;;10.40;99.90;;;;;;5093519;28;20405;-85
2022/07/25 12:31:35;;;;;;;14.88;8.45;;;10.40;99.90;;;;;;5094854;28;20380;-84
2022/07/25 12:34:02;;;;;;;17.70;8.95;;;10.40;99.90;;;;;;5094848;28;20860;-83
2022/07/25 12:36:30;;;;;;;14.70;9.13;;;10.40;99.90;;;;;;5094775;28;20376;-82
2022/07/25 12:38:57;;;;;;;14.52;8.25;;;10.50;99.90;;;;;;5094607;28;20447;-84
2022/07/25 12:41:24;;;;;;;12.07;7.72;;;10.50;99.90;;;;;;5094786;28;20377;-84
2022/07/25 12:43:51;;;;;;;13.98;8.68;;;10.50;99.90;;;;;;5093384;28;20380;-84
2022/07/25 12:46:18;;;;;;;13.00;8.80;;;10.50;99.90;;;;;;5094492;28;20375;-85
2022/07/25 12:48:46;;;;;;;13.65;8.85;;;10.50;99.90;;;;;;5095023;28;20400;-86
2022/07/25 12:51:13;;;;;;;11.07;7.85;;;10.50;99.90;;;;;;5096861;28;20375;-85
2022/07/25 12:53:40;;;;;;;13.70;7.93;;;10.50;99.90;;;;;;5098650;28;20384;-87
2022/07/25 12:56:07;;;;;;;12.63;7.63;;;10.60;99.90;;;;;;5095878;28;20425;-83
2022/07/25 12:58:35;;;;;;;10.15;8.00;;;10.60;99.90;;;;;;5094581;28;20417;-86
2022/07/25 13:01:04;;;;;;;9.05;7.43;;;10.60;99.90;;;;;;5094660;28;20368;-87
2022/07/25 13:03:31;;;;;;;10.43;7.72;;;10.60;99.90;;;;;;5094594;28;20380;-85
2022/07/25 13:05:58;;;;;;;12.50;8.40;;;10.70;99.90;;;;;;5094571;28;20376;-82
2022/07/25 13:08:26;;;;;;;10.13;7.80;;;10.20;99.90;;;;;;5094225;28;20408;-84
2022/07/25 13:10:53;;;;;;;11.07;7.67;;;10.70;99.90;;;;;;5092942;28;20380;-81
2022/07/25 13:13:20;;;;;;;8.98;7.20;;;10.80;99.90;;;;;;5094312;28;20380;-86
2022/07/25 13:15:47;;;;;;;7.88;6.20;;;10.80;99.90;;;;;;5093971;28;20383;-82
2022/07/25 13:18:14;;;;;;;8.10;6.80;;;10.80;99.90;;;;;;5093790;28;20868;-84
2022/07/25 13:20:41;;;;;;;8.90;6.13;;;10.90;99.90;;;;;;5092640;28;20773;-84
2022/07/25 13:23:09;;;;;;;8.32;6.20;;;10.90;99.90;;;;;;5093716;28;20368;-83
2022/07/25 13:25:39;;;;;;;11.05;7.03;;;11.00;99.90;;;;;;5093727;28;20368;-84
2022/07/25 13:28:06;;;;;;;7.97;6.70;;;11.00;99.90;;;;;;5093365;28;20518;-83
2022/07/25 13:30:33;;;;;;;8.30;6.70;;;11.10;99.90;;;;;;5093559;28;20380;-85
2022/07/25 13:33:01;;;;;;;8.13;6.68;;;11.20;99.90;;;;;;5093915;28;20451;-83
2022/07/25 13:35:28;;;;;;;6.53;5.78;;;11.20;99.90;;;;;;5093857;28;20376;-86
2022/07/25 13:37:55;;;;;;;6.87;5.97;;;11.30;99.90;;;;;;5093339;28;20368;-86